Time;durP1;ratioP1;P1;durP2;ratioP2;P2;SDS_P1;SDS_P2;PMS_P1;PMS_P2;Temp;Humidity;BMP_temperature;BMP_pressure;BME280_temperature;BME280_humidity;BME280_pressure;Samples;Min_cycle;Max_cycle;Signal;HPM_P1;HPM_P2
2023/11/13 00:01:52;;;;;;;18.20;11.65;;;4.70;99.90;;;;;;4970098;28;20076;-61
2023/11/13 00:04:18;;;;;;;15.10;11.02;;;4.70;99.90;;;;;;4992934;28;20042;-61
2023/11/13 00:06:43;;;;;;;17.67;11.20;;;4.60;99.90;;;;;;4953750;28;20057;-60
2023/11/13 00:09:09;;;;;;;16.58;10.77;;;4.60;99.90;;;;;;4991831;28;20043;-60
2023/11/13 00:11:34;;;;;;;17.58;10.85;;;4.60;99.90;;;;;;4987847;28;20056;-62
2023/11/13 00:14:00;;;;;;;17.67;11.38;;;4.60;99.90;;;;;;4987300;28;20034;-62
2023/11/13 00:16:26;;;;;;;17.58;11.27;;;4.60;99.90;;;;;;4975893;28;20034;-61
2023/11/13 00:18:52;;;;;;;18.23;12.23;;;4.50;99.90;;;;;;4987787;28;20030;-60
2023/11/13 00:21:18;;;;;;;21.08;12.48;;;4.50;99.90;;;;;;4987621;28;20042;-60
2023/11/13 00:23:43;;;;;;;22.40;13.27;;;4.90;99.90;;;;;;4987058;28;20753;-61
2023/11/13 00:26:10;;;;;;;20.95;12.35;;;4.50;99.90;;;;;;4953402;28;20139;-60
2023/11/13 00:28:35;;;;;;;22.50;12.85;;;4.50;99.90;;;;;;4987333;28;20597;-60
2023/11/13 00:31:02;;;;;;;19.65;12.48;;;4.50;99.90;;;;;;4969495;28;20113;-59
2023/11/13 00:33:28;;;;;;;23.83;12.68;;;4.40;99.90;;;;;;4993396;28;20117;-60
2023/11/13 00:35:54;;;;;;;18.77;11.48;;;4.40;99.90;;;;;;4985837;28;20145;-60
2023/11/13 00:38:19;;;;;;;19.40;11.27;;;4.40;99.90;;;;;;4986686;28;20046;-61
2023/11/13 00:40:45;;;;;;;18.30;11.50;;;4.40;99.90;;;;;;4987383;28;20128;-60
2023/11/13 00:43:12;;;;;;;16.75;11.43;;;4.40;99.90;;;;;;4963605;28;20038;-61
2023/11/13 00:45:38;;;;;;;16.77;11.25;;;4.30;99.90;;;;;;4972366;28;20516;-60
2023/11/13 00:48:04;;;;;;;17.92;11.20;;;4.30;99.90;;;;;;4986163;28;20125;-61
2023/11/13 00:50:30;;;;;;;15.95;10.77;;;4.30;99.90;;;;;;4969924;28;20429;-60
2023/11/13 00:52:56;;;;;;;20.05;11.45;;;4.20;99.90;;;;;;4986966;28;20046;-61
2023/11/13 00:55:21;;;;;;;18.73;11.25;;;4.20;99.90;;;;;;4986791;28;20104;-63
2023/11/13 00:57:47;;;;;;;17.30;11.40;;;4.20;99.90;;;;;;4987168;28;20042;-60
2023/11/13 01:00:14;;;;;;;16.33;11.25;;;4.20;99.90;;;;;;4992975;28;20046;-61
2023/11/13 01:02:40;;;;;;;18.20;11.98;;;4.10;99.90;;;;;;4986706;28;20046;-60
2023/11/13 01:05:06;;;;;;;18.23;11.40;;;4.20;99.90;;;;;;4981698;28;20045;-60
2023/11/13 01:07:32;;;;;;;21.77;12.55;;;4.20;99.90;;;;;;4987042;28;20540;-62
2023/11/13 01:09:57;;;;;;;23.08;12.45;;;4.20;99.90;;;;;;4982921;28;20493;-62
2023/11/13 01:12:23;;;;;;;20.35;11.48;;;4.20;99.90;;;;;;4986585;28;20655;-60
2023/11/13 01:14:50;;;;;;;19.15;12.05;;;4.20;99.90;;;;;;4986485;28;20038;-62
2023/11/13 01:17:16;;;;;;;18.92;10.95;;;4.10;99.90;;;;;;4981223;28;20046;-60
2023/11/13 01:19:41;;;;;;;15.90;10.48;;;4.10;99.90;;;;;;4987072;28;20047;-60
2023/11/13 01:22:07;;;;;;;17.08;10.15;;;4.10;99.90;;;;;;4986664;28;20137;-61
2023/11/13 01:24:33;;;;;;;14.35;10.07;;;4.10;99.90;;;;;;4969164;28;20042;-60
2023/11/13 01:26:58;;;;;;;16.25;10.82;;;4.10;99.90;;;;;;4986881;28;20042;-60
2023/11/13 01:29:24;;;;;;;18.95;11.05;;;4.00;99.90;;;;;;4979128;28;20034;-61
2023/11/13 01:31:49;;;;;;;15.52;10.65;;;4.10;99.90;;;;;;4970715;28;20584;-60
2023/11/13 01:34:15;;;;;;;15.50;10.05;;;4.00;99.90;;;;;;4982396;28;20057;-60
2023/11/13 01:36:45;;;;;;;17.13;11.10;;;4.00;99.90;;;;;;4987766;28;20057;-60
2023/11/13 01:39:10;;;;;;;19.48;11.23;;;4.00;99.90;;;;;;4986908;28;20061;-60
2023/11/13 01:41:37;;;;;;;16.25;10.77;;;4.00;99.90;;;;;;4986554;28;20038;-60
2023/11/13 01:44:03;;;;;;;16.40;10.85;;;4.00;99.90;;;;;;4987445;28;20306;-60
2023/11/13 01:46:30;;;;;;;19.77;12.10;;;4.00;99.90;;;;;;4986402;28;20046;-60
2023/11/13 01:48:56;;;;;;;21.08;12.02;;;4.00;99.90;;;;;;4994225;28;20072;-62
2023/11/13 01:51:24;;;;;;;20.55;11.65;;;4.00;99.90;;;;;;4968956;28;20043;-60
2023/11/13 01:53:50;;;;;;;20.50;13.05;;;3.90;99.90;;;;;;4986940;28;20525;-61
2023/11/13 01:56:16;;;;;;;20.42;13.65;;;3.90;99.90;;;;;;4969117;28;20038;-60
2023/11/13 01:58:42;;;;;;;22.60;13.82;;;3.90;99.90;;;;;;4986581;28;20361;-60
2023/11/13 02:01:08;;;;;;;22.38;14.20;;;3.90;99.90;;;;;;4964983;28;20498;-60
2023/11/13 02:03:34;;;;;;;26.60;14.23;;;4.00;99.90;;;;;;4972857;28;20054;-60
2023/11/13 02:06:01;;;;;;;25.13;14.45;;;4.00;99.90;;;;;;4989356;28;20557;-60
2023/11/13 02:08:26;;;;;;;26.15;15.25;;;4.00;99.90;;;;;;4989382;28;20429;-60
2023/11/13 02:10:53;;;;;;;25.55;14.98;;;4.00;99.90;;;;;;4990066;28;20045;-60
2023/11/13 02:13:18;;;;;;;26.25;14.25;;;4.00;99.90;;;;;;4989914;28;20042;-60
2023/11/13 02:15:44;;;;;;;25.83;14.43;;;4.00;99.90;;;;;;4989537;28;20046;-62
2023/11/13 02:18:09;;;;;;;25.23;14.95;;;4.00;99.90;;;;;;4997377;28;20124;-63
2023/11/13 02:20:35;;;;;;;22.65;14.02;;;4.10;99.90;;;;;;4989532;28;20042;-60
2023/11/13 02:23:01;;;;;;;22.77;14.60;;;4.10;99.90;;;;;;4971764;28;20054;-60
2023/11/13 02:25:27;;;;;;;26.40;14.20;;;4.10;99.90;;;;;;4989114;28;20046;-60
2023/11/13 02:28:01;;;;;;;24.02;14.70;;;4.10;99.90;;;;;;4988980;28;20121;-61
2023/11/13 02:30:26;;;;;;;23.95;14.75;;;4.10;99.90;;;;;;4990238;28;20092;-60
2023/11/13 02:32:52;;;;;;;25.15;14.25;;;4.20;99.90;;;;;;4971842;28;20038;-63
2023/11/13 02:35:18;;;;;;;23.77;14.10;;;4.20;99.90;;;;;;4986945;28;20042;-61
2023/11/13 02:37:44;;;;;;;22.55;13.68;;;4.10;99.90;;;;;;4989110;28;20045;-60
2023/11/13 02:40:11;;;;;;;24.42;14.40;;;4.10;99.90;;;;;;4972164;28;20418;-60
2023/11/13 02:42:38;;;;;;;23.83;14.55;;;4.10;99.90;;;;;;4993011;28;20092;-60
2023/11/13 02:45:05;;;;;;;23.48;14.05;;;4.10;99.90;;;;;;4988512;28;20077;-60
2023/11/13 02:47:31;;;;;;;24.60;14.48;;;4.10;99.90;;;;;;4990625;28;20045;-61
2023/11/13 02:49:57;;;;;;;23.60;14.27;;;4.20;99.90;;;;;;4998605;28;20034;-63
2023/11/13 02:52:23;;;;;;;21.65;13.18;;;4.20;99.90;;;;;;4971332;28;20086;-60
2023/11/13 02:54:51;;;;;;;23.52;14.10;;;4.20;99.90;;;;;;4983136;28;20105;-62
2023/11/13 02:57:16;;;;;;;23.60;14.35;;;4.20;99.90;;;;;;4971575;28;20066;-60
2023/11/13 02:59:42;;;;;;;24.33;14.20;;;4.20;99.90;;;;;;4988715;28;20069;-60
2023/11/13 03:02:07;;;;;;;24.15;13.27;;;4.20;99.90;;;;;;4988731;28;20042;-60
2023/11/13 03:04:33;;;;;;;22.25;13.90;;;4.20;99.90;;;;;;4988849;28;20604;-60
2023/11/13 03:06:59;;;;;;;23.10;13.63;;;4.20;99.90;;;;;;4989022;28;20055;-63
2023/11/13 03:09:24;;;;;;;23.30;13.90;;;4.20;99.90;;;;;;4988110;28;20041;-61
2023/11/13 03:11:50;;;;;;;21.40;13.38;;;4.20;99.90;;;;;;4993590;28;20436;-60
2023/11/13 03:14:15;;;;;;;25.27;13.82;;;4.20;99.90;;;;;;4989286;28;20128;-60
2023/11/13 03:16:41;;;;;;;22.23;13.50;;;4.20;99.90;;;;;;4990528;28;20173;-61
2023/11/13 03:19:07;;;;;;;20.23;12.98;;;4.20;99.90;;;;;;4978086;28;20385;-61
2023/11/13 03:21:33;;;;;;;25.15;13.85;;;4.20;99.90;;;;;;4971722;28;20042;-60
2023/11/13 03:23:59;;;;;;;23.35;13.52;;;4.20;99.90;;;;;;4989266;28;20042;-60
2023/11/13 03:26:28;;;;;;;21.90;12.93;;;4.20;99.90;;;;;;4988394;28;20386;-60
2023/11/13 03:28:54;;;;;;;22.55;12.90;;;4.20;99.90;;;;;;4971316;28;20065;-61
2023/11/13 03:31:20;;;;;;;28.40;12.45;;;4.20;99.90;;;;;;4988568;28;20038;-62
2023/11/13 03:33:46;;;;;;;23.30;12.48;;;4.20;99.90;;;;;;4971424;28;20075;-63
2023/11/13 03:36:11;;;;;;;20.05;12.75;;;4.30;99.90;;;;;;4971000;28;20042;-61
2023/11/13 03:38:37;;;;;;;21.63;12.48;;;4.20;99.90;;;;;;4989714;28;20073;-62
2023/11/13 03:41:03;;;;;;;23.15;12.73;;;4.30;99.90;;;;;;4988732;28;20042;-62
2023/11/13 03:43:29;;;;;;;21.48;12.77;;;4.30;99.90;;;;;;4988559;28;20476;-62
2023/11/13 03:45:55;;;;;;;22.67;13.15;;;4.30;99.90;;;;;;4986898;28;20056;-62
2023/11/13 03:48:20;;;;;;;20.77;12.75;;;4.30;99.90;;;;;;4988782;28;20564;-62
2023/11/13 03:50:46;;;;;;;23.20;13.57;;;4.30;99.90;;;;;;4988346;28;20030;-62
2023/11/13 03:53:12;;;;;;;24.08;12.70;;;4.30;99.90;;;;;;4993440;28;20034;-62
2023/11/13 03:55:38;;;;;;;22.52;12.75;;;4.40;99.90;;;;;;4987657;28;20042;-62
2023/11/13 03:58:03;;;;;;;24.33;13.10;;;4.40;99.90;;;;;;4988082;28;20113;-62
2023/11/13 04:00:29;;;;;;;22.85;12.70;;;4.40;99.90;;;;;;4988190;28;20517;-62
2023/11/13 04:02:54;;;;;;;27.80;13.65;;;4.40;99.90;;;;;;4987776;28;20042;-62
2023/11/13 04:05:20;;;;;;;23.80;12.63;;;4.40;99.90;;;;;;4970942;28;20125;-62
2023/11/13 04:07:46;;;;;;;22.45;12.80;;;4.50;99.90;;;;;;4988301;28;20042;-62
2023/11/13 04:10:17;;;;;;;24.65;13.05;;;4.40;99.90;;;;;;4988593;28;20044;-62
2023/11/13 04:12:44;;;;;;;20.48;12.48;;;4.50;99.90;;;;;;4968717;28;21138;-62
2023/11/13 04:15:10;;;;;;;19.85;12.18;;;4.50;99.90;;;;;;4986978;28;20034;-62
2023/11/13 04:17:36;;;;;;;22.73;12.73;;;4.50;99.90;;;;;;4988218;28;20080;-62
2023/11/13 04:20:06;;;;;;;23.98;12.18;;;4.50;99.90;;;;;;4980735;28;20074;-62
2023/11/13 04:22:32;;;;;;;25.90;13.23;;;4.50;99.90;;;;;;4969717;28;20058;-62
2023/11/13 04:25:02;;;;;;;19.90;11.82;;;4.50;99.90;;;;;;4978093;28;20034;-62
2023/11/13 04:27:31;;;;;;;27.67;13.10;;;4.60;99.90;;;;;;4985351;28;20052;-62
2023/11/13 04:29:58;;;;;;;25.13;12.13;;;4.60;99.90;;;;;;4987049;28;20378;-62
2023/11/13 04:32:24;;;;;;;25.50;12.73;;;4.60;99.90;;;;;;4981412;28;20038;-61
2023/11/13 04:34:50;;;;;;;22.08;12.27;;;4.60;99.90;;;;;;4987647;28;20093;-62
2023/11/13 04:37:17;;;;;;;29.45;13.13;;;4.60;99.90;;;;;;4987282;28;20050;-62
2023/11/13 04:39:43;;;;;;;21.40;12.20;;;4.60;99.90;;;;;;4970580;28;20050;-62
2023/11/13 04:42:08;;;;;;;20.98;12.90;;;4.60;99.90;;;;;;4986651;28;20591;-62
2023/11/13 04:44:34;;;;;;;25.52;12.75;;;4.60;99.90;;;;;;4987657;28;20505;-62
2023/11/13 04:46:59;;;;;;;21.45;12.35;;;4.60;99.90;;;;;;4969783;28;20050;-62
2023/11/13 04:49:25;;;;;;;23.15;13.32;;;4.60;99.90;;;;;;4987155;28;20049;-62
2023/11/13 04:51:51;;;;;;;22.20;12.77;;;4.60;99.90;;;;;;4987209;28;20062;-62
2023/11/13 04:54:17;;;;;;;22.17;13.57;;;4.60;99.90;;;;;;4992463;28;20034;-62
2023/11/13 04:56:42;;;;;;;21.45;13.68;;;4.70;99.90;;;;;;4987640;28;20042;-62
2023/11/13 04:59:09;;;;;;;26.10;13.18;;;4.70;99.90;;;;;;4987143;28;20489;-62
2023/11/13 05:01:39;;;;;;;25.67;12.90;;;4.70;99.90;;;;;;4987345;28;20097;-62
2023/11/13 05:04:09;;;;;;;25.42;13.88;;;4.70;99.90;;;;;;4987207;28;20454;-62
2023/11/13 05:06:35;;;;;;;25.25;12.88;;;4.70;99.90;;;;;;4965878;28;20053;-62
2023/11/13 05:09:04;;;;;;;20.98;12.55;;;4.70;99.90;;;;;;4985654;28;20081;-62
2023/11/13 05:11:30;;;;;;;21.23;13.13;;;4.70;99.90;;;;;;4983381;28;20458;-62
2023/11/13 05:13:56;;;;;;;21.85;13.48;;;4.70;99.90;;;;;;4985110;28;20050;-62
2023/11/13 05:16:26;;;;;;;25.40;14.43;;;4.70;99.90;;;;;;4986980;28;20163;-62
2023/11/13 05:18:52;;;;;;;27.08;13.48;;;4.70;99.90;;;;;;4969761;28;20084;-62
2023/11/13 05:21:19;;;;;;;21.92;14.07;;;4.70;99.90;;;;;;4968305;28;20100;-62
2023/11/13 05:23:46;;;;;;;22.00;13.23;;;4.70;99.90;;;;;;4987311;28;20042;-62
2023/11/13 05:26:11;;;;;;;28.38;13.88;;;4.70;99.90;;;;;;4987410;28;20093;-62
2023/11/13 05:28:37;;;;;;;24.33;13.65;;;4.70;99.90;;;;;;4988729;28;20042;-62
2023/11/13 05:31:03;;;;;;;24.45;13.90;;;4.70;99.90;;;;;;4987671;28;20066;-62
2023/11/13 05:33:29;;;;;;;24.75;13.43;;;4.70;99.90;;;;;;4990853;28;20390;-62
2023/11/13 05:35:55;;;;;;;21.77;12.93;;;4.70;99.90;;;;;;4998364;28;20119;-62
2023/11/13 05:38:21;;;;;;;22.83;13.63;;;4.70;99.90;;;;;;4991702;28;20042;-62
2023/11/13 05:40:46;;;;;;;24.20;13.68;;;4.80;99.90;;;;;;4991143;28;20125;-62
2023/11/13 05:43:12;;;;;;;22.27;13.35;;;4.80;99.90;;;;;;4984398;28;20050;-62
2023/11/13 05:45:38;;;;;;;24.83;12.85;;;4.80;99.90;;;;;;4990716;28;20414;-62
2023/11/13 05:48:05;;;;;;;23.10;13.15;;;4.70;99.90;;;;;;4989120;28;20053;-62
2023/11/13 05:50:31;;;;;;;20.88;12.60;;;4.80;99.90;;;;;;4986770;28;20486;-62
2023/11/13 05:52:57;;;;;;;20.92;12.95;;;4.80;99.90;;;;;;4990050;28;20034;-62
2023/11/13 05:55:23;;;;;;;21.77;13.63;;;4.80;99.90;;;;;;4990017;28;20049;-62
2023/11/13 05:57:49;;;;;;;18.15;12.25;;;4.80;99.90;;;;;;4990408;28;20096;-62
2023/11/13 06:00:18;;;;;;;21.73;12.82;;;4.80;99.90;;;;;;4990295;28;20445;-62
2023/11/13 06:02:47;;;;;;;24.65;13.35;;;4.80;99.90;;;;;;4972747;28;20152;-62
2023/11/13 06:05:14;;;;;;;18.70;12.50;;;4.90;99.90;;;;;;4989655;28;20557;-62
2023/11/13 06:07:40;;;;;;;23.10;12.95;;;4.90;99.90;;;;;;4971169;28;20101;-62
2023/11/13 06:10:10;;;;;;;21.05;12.52;;;4.90;99.90;;;;;;4990238;28;20454;-62
2023/11/13 06:12:39;;;;;;;22.40;12.70;;;4.90;99.90;;;;;;4995425;28;20077;-62
2023/11/13 06:15:11;;;;;;;21.35;13.43;;;4.90;99.90;;;;;;4990950;28;20486;-62
2023/11/13 06:17:37;;;;;;;20.40;12.27;;;4.90;99.90;;;;;;4985735;28;20054;-62
2023/11/13 06:20:03;;;;;;;20.63;12.18;;;4.90;99.90;;;;;;4990343;28;20046;-62
2023/11/13 06:22:30;;;;;;;22.90;12.90;;;4.90;99.90;;;;;;4989542;28;20042;-62
2023/11/13 06:24:56;;;;;;;22.33;12.32;;;4.90;99.90;;;;;;4957274;28;20508;-62
2023/11/13 06:27:21;;;;;;;22.08;12.05;;;4.90;99.90;;;;;;4985987;28;20077;-62
2023/11/13 06:29:47;;;;;;;19.38;12.05;;;4.90;99.90;;;;;;4972253;28;20125;-62
2023/11/13 06:32:12;;;;;;;23.35;11.98;;;4.90;99.90;;;;;;4989284;28;20077;-62
2023/11/13 06:34:38;;;;;;;21.05;12.45;;;4.90;99.90;;;;;;4983117;28;20490;-62
2023/11/13 06:37:04;;;;;;;25.92;12.90;;;5.00;99.90;;;;;;4987157;28;20049;-63
2023/11/13 06:39:29;;;;;;;21.55;11.45;;;5.00;99.90;;;;;;4989599;28;20042;-62
2023/11/13 06:41:55;;;;;;;20.02;12.27;;;5.00;99.90;;;;;;4989699;28;20453;-62
2023/11/13 06:44:21;;;;;;;19.65;12.30;;;5.00;99.90;;;;;;4989574;28;20049;-62
2023/11/13 06:46:47;;;;;;;20.08;12.32;;;5.00;99.90;;;;;;4992397;28;20117;-62
2023/11/13 06:49:14;;;;;;;20.23;11.57;;;5.00;99.90;;;;;;4988794;28;20141;-62
2023/11/13 06:51:40;;;;;;;22.20;13.15;;;5.00;99.90;;;;;;4971642;28;20046;-62
2023/11/13 06:54:07;;;;;;;18.45;12.50;;;5.00;99.90;;;;;;4989481;28;20062;-62
2023/11/13 06:56:34;;;;;;;20.38;12.13;;;5.00;99.90;;;;;;4971279;28;20046;-62
2023/11/13 06:59:00;;;;;;;18.63;12.15;;;5.00;99.90;;;;;;4988996;28;20044;-62
2023/11/13 07:01:25;;;;;;;20.42;12.15;;;5.10;99.90;;;;;;4989408;28;20121;-62
2023/11/13 07:03:52;;;;;;;22.63;12.27;;;5.10;99.90;;;;;;4991690;28;20549;-62
2023/11/13 07:06:18;;;;;;;21.55;12.20;;;5.10;99.90;;;;;;4988265;28;20486;-62
2023/11/13 07:08:44;;;;;;;23.25;12.77;;;5.10;99.90;;;;;;4989127;28;20080;-62
2023/11/13 07:11:11;;;;;;;19.30;11.57;;;5.20;99.90;;;;;;4994514;28;20085;-62
2023/11/13 07:13:39;;;;;;;20.15;11.75;;;5.20;99.90;;;;;;4989036;28;20113;-62
2023/11/13 07:16:07;;;;;;;18.75;12.10;;;5.20;99.90;;;;;;4989274;28;20058;-62
2023/11/13 07:18:33;;;;;;;23.20;12.20;;;5.20;99.90;;;;;;4972677;28;20120;-62
2023/11/13 07:20:59;;;;;;;26.40;13.07;;;5.20;99.90;;;;;;4988653;28;20125;-62
2023/11/13 07:23:25;;;;;;;19.45;11.80;;;5.20;99.90;;;;;;4964141;28;20049;-62
2023/11/13 07:25:50;;;;;;;22.15;12.05;;;5.20;99.90;;;;;;4988529;28;20513;-62
2023/11/13 07:28:17;;;;;;;21.60;12.00;;;5.20;99.90;;;;;;4988608;28;20524;-62
2023/11/13 07:30:42;;;;;;;18.98;12.00;;;5.30;99.90;;;;;;4991080;28;20050;-62
2023/11/13 07:33:08;;;;;;;20.10;12.38;;;5.40;99.90;;;;;;4988301;28;21371;-62
2023/11/13 07:35:36;;;;;;;19.65;12.32;;;5.30;99.90;;;;;;4986984;28;20088;-62
2023/11/13 07:38:02;;;;;;;22.63;12.23;;;5.30;99.90;;;;;;4991559;28;20069;-62
2023/11/13 07:40:27;;;;;;;21.33;11.82;;;5.40;99.90;;;;;;4988923;28;20074;-62
2023/11/13 07:42:54;;;;;;;17.98;12.38;;;5.40;99.90;;;;;;4986893;28;20070;-62
2023/11/13 07:45:20;;;;;;;22.65;12.60;;;5.40;99.90;;;;;;4988216;28;20042;-62
2023/11/13 07:47:45;;;;;;;20.10;11.73;;;5.40;99.90;;;;;;4987982;28;20045;-62
2023/11/13 07:50:11;;;;;;;20.98;12.15;;;5.40;99.90;;;;;;4989727;28;20100;-62
2023/11/13 07:52:44;;;;;;;20.60;11.95;;;5.50;99.90;;;;;;4988013;28;20524;-62
2023/11/13 07:55:14;;;;;;;21.05;13.02;;;5.50;99.90;;;;;;4987338;28;20371;-62
2023/11/13 07:57:41;;;;;;;20.75;11.77;;;5.50;99.90;;;;;;4987846;28;20046;-62
2023/11/13 08:00:09;;;;;;;20.15;12.35;;;5.60;99.90;;;;;;4987384;28;20044;-62
2023/11/13 08:02:37;;;;;;;19.85;11.82;;;5.50;99.90;;;;;;4987997;28;20038;-62
2023/11/13 08:05:03;;;;;;;22.33;12.15;;;5.50;99.90;;;;;;4969660;28;20300;-62
2023/11/13 08:07:29;;;;;;;22.40;12.40;;;5.50;99.90;;;;;;4970299;28;20042;-62
2023/11/13 08:09:55;;;;;;;21.30;12.27;;;5.50;99.90;;;;;;4987709;28;20030;-62
2023/11/13 08:12:20;;;;;;;23.60;13.32;;;5.50;99.90;;;;;;4986039;28;20030;-62
2023/11/13 08:14:49;;;;;;;22.13;12.57;;;5.50;99.90;;;;;;4968027;28;20039;-62
2023/11/13 08:17:15;;;;;;;21.77;12.80;;;5.60;99.90;;;;;;4987670;28;20050;-62
2023/11/13 08:19:41;;;;;;;21.98;13.30;;;5.00;99.90;;;;;;4987965;28;20045;-62
2023/11/13 08:22:07;;;;;;;23.13;13.77;;;5.60;99.90;;;;;;4969698;28;20042;-62
2023/11/13 08:24:32;;;;;;;22.77;13.48;;;5.60;99.90;;;;;;4987144;28;20532;-62
2023/11/13 08:27:01;;;;;;;22.92;13.98;;;5.60;99.90;;;;;;4987170;28;20050;-62
2023/11/13 08:29:27;;;;;;;22.30;13.57;;;5.60;99.90;;;;;;4987590;28;20532;-62
2023/11/13 08:31:53;;;;;;;26.05;14.38;;;5.70;99.90;;;;;;4987371;28;20046;-62
2023/11/13 08:34:19;;;;;;;30.92;16.40;;;5.70;99.90;;;;;;4969805;28;20042;-62
2023/11/13 08:36:45;;;;;;;31.83;16.40;;;5.70;99.90;;;;;;4988994;28;20096;-62
2023/11/13 08:39:10;;;;;;;30.17;17.27;;;5.70;99.90;;;;;;4986824;28;20034;-62
2023/11/13 08:41:36;;;;;;;34.70;17.48;;;5.70;99.90;;;;;;4987185;28;20030;-62
2023/11/13 08:44:03;;;;;;;35.15;18.10;;;5.80;99.90;;;;;;4968793;28;20625;-62
2023/11/13 08:46:30;;;;;;;33.38;18.25;;;5.80;99.90;;;;;;4977393;28;20034;-62
2023/11/13 08:48:56;;;;;;;39.67;18.45;;;5.80;99.90;;;;;;4979294;28;20395;-62
2023/11/13 08:51:28;;;;;;;39.03;19.15;;;5.80;99.90;;;;;;4987121;28;20504;-62
2023/11/13 08:53:54;;;;;;;45.28;19.92;;;5.80;99.90;;;;;;4987339;28;20070;-62
2023/11/13 08:56:21;;;;;;;43.95;19.77;;;5.80;99.90;;;;;;4967685;28;20121;-62
2023/11/13 08:58:47;;;;;;;41.72;19.70;;;5.90;99.90;;;;;;4969533;28;20490;-62
2023/11/13 09:01:15;;;;;;;41.33;19.58;;;5.90;99.90;;;;;;4986925;28;20038;-62
2023/11/13 09:03:42;;;;;;;41.75;19.63;;;5.90;99.90;;;;;;4987203;28;20577;-62
2023/11/13 09:06:08;;;;;;;49.70;21.23;;;5.90;99.90;;;;;;4968895;28;20050;-62
2023/11/13 09:08:36;;;;;;;43.45;20.48;;;5.90;99.90;;;;;;4965214;28;20039;-62
2023/11/13 09:11:04;;;;;;;46.42;21.02;;;5.90;99.90;;;;;;4988943;28;20046;-62
2023/11/13 09:13:29;;;;;;;46.45;21.27;;;6.00;99.90;;;;;;4987893;28;20109;-62
2023/11/13 09:15:55;;;;;;;42.15;20.95;;;6.00;99.90;;;;;;4990560;28;20128;-62
2023/11/13 09:18:26;;;;;;;47.92;20.98;;;6.00;99.90;;;;;;4991525;28;20042;-62
2023/11/13 09:20:54;;;;;;;49.58;22.85;;;6.00;99.90;;;;;;4990794;28;20520;-62
2023/11/13 09:23:20;;;;;;;48.03;21.83;;;6.10;99.90;;;;;;4973635;28;20130;-62
2023/11/13 09:25:46;;;;;;;44.53;22.25;;;6.10;99.90;;;;;;4988764;28;20038;-62
2023/11/13 09:28:12;;;;;;;50.30;22.45;;;6.00;99.90;;;;;;4991062;28;20120;-63
2023/11/13 09:30:39;;;;;;;44.67;21.42;;;6.10;99.90;;;;;;4985005;28;20034;-63
2023/11/13 09:33:08;;;;;;;47.63;21.20;;;6.10;99.90;;;;;;4965139;28;20046;-63
2023/11/13 09:35:36;;;;;;;43.38;21.20;;;6.20;99.90;;;;;;4988837;28;20069;-63
2023/11/13 09:38:03;;;;;;;46.40;21.77;;;6.20;99.90;;;;;;4972394;28;20054;-63
2023/11/13 09:40:34;;;;;;;44.53;22.10;;;6.20;99.90;;;;;;4990859;28;20053;-63
2023/11/13 09:43:29;;;;;;;44.67;20.17;;;6.20;99.90;;;;;;4990174;28;20034;-62
2023/11/13 09:45:57;;;;;;;49.15;20.85;;;6.30;99.90;;;;;;4969569;28;20313;-63
2023/11/13 09:48:29;;;;;;;40.20;20.02;;;6.30;99.90;;;;;;4990008;28;20050;-63
2023/11/13 09:50:58;;;;;;;;;;;6.30;99.90;;;;;;4990974;28;20037;-63
2023/11/13 09:53:28;;;;;;;44.10;20.52;;;6.30;99.90;;;;;;4989902;28;20312;-63
2023/11/13 09:55:54;;;;;;;47.70;21.13;;;6.30;99.90;;;;;;4986902;28;20145;-63
2023/11/13 09:58:21;;;;;;;38.60;19.83;;;6.30;99.90;;;;;;4990078;28;20092;-63
2023/11/13 10:00:46;;;;;;;39.13;20.13;;;6.40;99.90;;;;;;4972671;28;20125;-63
2023/11/13 10:03:15;;;;;;;42.08;20.65;;;6.40;99.90;;;;;;4989675;28;20125;-63
2023/11/13 10:05:42;;;;;;;42.80;19.30;;;6.50;99.90;;;;;;4986909;28;20133;-63
2023/11/13 10:08:08;;;;;;;39.65;18.63;;;6.50;99.90;;;;;;4989029;28;20040;-63
2023/11/13 10:10:34;;;;;;;41.47;18.27;;;6.60;99.90;;;;;;4991243;28;20542;-63
2023/11/13 10:13:04;;;;;;;35.75;17.75;;;6.60;99.90;;;;;;4974738;28;20045;-63
2023/11/13 10:15:31;;;;;;;35.47;18.05;;;6.60;99.90;;;;;;4989334;28;20044;-63
2023/11/13 10:17:58;;;;;;;31.60;16.80;;;6.60;99.90;;;;;;4984304;28;20514;-63
2023/11/13 10:20:25;;;;;;;32.88;17.20;;;6.70;99.90;;;;;;4971610;28;20074;-63
2023/11/13 10:23:03;;;;;;;31.65;15.90;;;6.70;99.90;;;;;;4989035;28;20485;-63
2023/11/13 10:25:50;;;;;;;32.58;18.08;;;6.70;99.90;;;;;;4995882;28;20473;-63
2023/11/13 10:28:21;;;;;;;36.05;16.85;;;6.80;99.90;;;;;;4989427;28;20050;-63
2023/11/13 10:31:12;;;;;;;37.08;18.73;;;6.80;99.90;;;;;;4989467;28;20034;-63
2023/11/13 10:33:39;;;;;;;39.70;16.70;;;6.90;99.90;;;;;;4984551;28;20430;-63
2023/11/13 10:36:17;;;;;;;35.90;15.82;;;6.90;99.90;;;;;;4987827;28;20058;-63
2023/11/13 10:38:45;;;;;;;33.58;15.80;;;7.00;99.90;;;;;;4989307;28;20050;-64
2023/11/13 10:41:12;;;;;;;34.75;15.70;;;7.00;99.90;;;;;;4988724;28;20042;-63
2023/11/13 10:43:39;;;;;;;35.05;15.38;;;7.00;99.90;;;;;;4971418;28;20041;-63
2023/11/13 10:46:06;;;;;;;34.28;15.68;;;7.10;99.90;;;;;;4988516;28;20070;-63
2023/11/13 10:48:45;;;;;;;32.50;15.27;;;7.10;99.90;;;;;;4989403;28;20738;-63
2023/11/13 10:51:14;;;;;;;29.75;14.93;;;7.10;99.90;;;;;;4988411;28;20061;-63
2023/11/13 10:53:43;;;;;;;33.67;15.63;;;7.10;99.90;;;;;;4971458;28;20391;-64
2023/11/13 10:56:10;;;;;;;30.38;14.10;;;7.10;99.90;;;;;;4988330;28;20038;-63
2023/11/13 10:58:36;;;;;;;27.52;14.35;;;7.20;99.90;;;;;;4989177;28;20045;-63
2023/11/13 11:01:16;;;;;;;27.73;13.00;;;7.20;99.90;;;;;;4988340;28;20461;-63
2023/11/13 11:03:45;;;;;;;28.73;13.50;;;7.30;99.90;;;;;;4989044;28;20084;-63
2023/11/13 11:06:14;;;;;;;29.83;14.27;;;7.30;99.90;;;;;;4988285;28;20034;-63
2023/11/13 11:08:42;;;;;;;26.73;14.02;;;7.40;99.90;;;;;;4989013;28;20046;-63
2023/11/13 11:11:10;;;;;;;30.10;14.38;;;7.40;99.90;;;;;;4988579;28;20060;-63
2023/11/13 11:13:39;;;;;;;28.58;13.00;;;7.40;99.90;;;;;;4988527;28;20038;-63
2023/11/13 11:16:23;;;;;;;23.98;12.35;;;7.50;99.90;;;;;;4987719;28;20038;-63
2023/11/13 11:19:13;;;;;;;25.45;11.60;;;7.50;99.90;;;;;;4988745;28;20529;-63
2023/11/13 11:21:46;;;;;;;22.85;12.10;;;7.60;99.90;;;;;;4970932;28;20081;-63
2023/11/13 11:24:50;;;;;;;22.92;11.50;;;7.60;99.90;;;;;;4970860;28;20462;-63
2023/11/13 11:27:39;;;;;;;28.45;11.95;;;7.70;99.90;;;;;;4988227;28;20054;-64
2023/11/13 11:30:31;;;;;;;25.02;11.77;;;7.80;99.90;;;;;;4988360;28;20046;-64
2023/11/13 11:32:59;;;;;;;21.80;11.85;;;7.80;99.90;;;;;;4979902;28;20053;-64
2023/11/13 11:35:30;;;;;;;24.33;12.02;;;7.80;99.90;;;;;;4987918;28;20037;-64
2023/11/13 11:38:20;;;;;;;27.90;11.98;;;7.90;99.90;;;;;;4970427;28;20042;-64
2023/11/13 11:40:48;;;;;;;26.15;11.50;;;7.90;99.90;;;;;;4988281;28;20050;-63
2023/11/13 11:43:28;;;;;;;26.13;11.95;;;8.00;99.90;;;;;;4987620;28;20046;-63
2023/11/13 11:45:57;;;;;;;29.13;11.90;;;8.00;99.90;;;;;;4969164;28;20046;-63
2023/11/13 11:48:24;;;;;;;22.88;10.80;;;8.00;99.90;;;;;;4986929;28;20046;-64
2023/11/13 11:51:03;;;;;;;22.70;10.30;;;8.10;99.90;;;;;;4986821;28;20069;-64
2023/11/13 11:53:32;;;;;;;18.05;10.18;;;8.10;99.90;;;;;;4964460;28;20042;-63
2023/11/13 11:55:58;;;;;;;21.92;9.80;;;8.20;99.90;;;;;;4968370;28;20081;-63
2023/11/13 11:58:24;;;;;;;20.40;10.40;;;8.20;99.90;;;;;;4988200;28;20561;-63
2023/11/13 12:00:51;;;;;;;18.35;9.40;;;8.20;99.90;;;;;;4988811;28;20126;-63
2023/11/13 12:03:16;;;;;;;18.33;9.00;;;8.30;99.90;;;;;;4987881;28;20130;-64
2023/11/13 12:05:42;;;;;;;19.15;9.45;;;8.30;99.90;;;;;;4985938;28;20487;-63
2023/11/13 12:08:08;;;;;;;18.13;9.10;;;8.30;99.90;;;;;;4988246;28;20050;-63
2023/11/13 12:10:34;;;;;;;19.52;9.80;;;8.40;99.90;;;;;;4987687;28;20244;-63
2023/11/13 12:13:01;;;;;;;21.60;9.40;;;8.40;99.90;;;;;;4987728;28;20038;-64
2023/11/13 12:15:28;;;;;;;18.88;8.75;;;8.40;99.90;;;;;;4987450;28;20030;-63
2023/11/13 12:17:53;;;;;;;18.63;9.32;;;8.50;99.90;;;;;;4991104;28;20100;-63
2023/11/13 12:20:19;;;;;;;16.33;9.43;;;8.50;99.90;;;;;;4987937;28;20498;-63
2023/11/13 12:22:45;;;;;;;20.10;9.38;;;8.60;99.90;;;;;;4984489;28;20069;-63
2023/11/13 12:25:12;;;;;;;20.65;9.88;;;8.60;99.90;;;;;;4987331;28;20038;-64
2023/11/13 12:27:40;;;;;;;18.88;10.80;;;8.60;99.90;;;;;;4987511;28;20514;-63
2023/11/13 12:30:19;;;;;;;18.55;10.98;;;8.60;99.90;;;;;;4970317;28;20034;-64
2023/11/13 12:32:46;;;;;;;23.33;12.13;;;8.70;99.90;;;;;;4985448;28;20113;-63
2023/11/13 12:35:12;;;;;;;22.48;12.98;;;8.70;99.90;;;;;;4987046;28;20081;-63
2023/11/13 12:37:41;;;;;;;23.58;13.45;;;8.80;99.90;;;;;;4987973;28;20044;-64
2023/11/13 12:40:08;;;;;;;21.13;12.65;;;8.90;99.90;;;;;;4983911;28;20034;-63